Kimball, Minnesota
Current Conditions -  °F | °C
As of 8:32 AM on Thursday 23 Oct 2014 (Local Time) from KLJF Reporting Station
Moderate Fog Moderate Fog  
Wind Chill: 48°   Ceiling: 200
Heat Index: 48°   Visibility: 0.25mi
Dew Point: 48°   Wind: 3mph
Humidity: 100%   Direction: 230°SW
Pressure: 29.99"   Gusts: NA
Location:  45.31°N, 94.3°W
Report Text: KLJF 231332Z AUTO 23003KT 1/4SM FG OVC002 09/09 A2999 RMK AO2
Loading
Personal Weather Stations






























Interactive Weather Map New forecast layout! Learn more

10-Day Weather Forecast

Advertisements
Track Severe Weather on mobile